Terminal Aerodrome Forecast
Issued by NWS Lake Charles, LA

Home | Current Version | Previous Version | Text Only | Print | Product List | Glossary On
Versions: 1 2 3 4 5 6 7 8 9 10 11 12 13 14 15 16
000
FTUS44 KLCH 042038 AAB
TAFLFT
TAF AMD
KLFT 042038Z 0421/0518 14008KT P6SM VCTS SCT030CB BKN050 BKN080
      TEMPO 0421/0423 VRB15G25KT 2SM TSRA BKN030CB OVC050
     FM042300 11003KT P6SM SCT030 BKN080
     FM051500 13012G20KT P6SM SCT030 SCT040 SCT130=

USA.gov is the U.S. government's official web portal to all federal, state and local government web resources and services.